sensor_id;sensor_type;location;lat;lon;timestamp;pressure;altitude;pressure_sealevel;temperature;humidity
68376;BME280;55318;52.068;5.188;2023-04-25T00:00:48;101124.0;;;8.34;85.63
68376;BME280;55318;52.068;5.188;2023-04-25T00:04:00;101131.0;;;8.43;85.21
68376;BME280;55318;52.068;5.188;2023-04-25T00:05:36;101125.0;;;8.49;85.6
68376;BME280;55318;52.068;5.188;2023-04-25T00:07:13;101134.0;;;8.52;85.32
68376;BME280;55318;52.068;5.188;2023-04-25T00:10:25;101131.0;;;8.41;85.02
68376;BME280;55318;52.068;5.188;2023-04-25T00:12:02;101138.0;;;8.61;84.05
68376;BME280;55318;52.068;5.188;2023-04-25T00:13:38;101138.0;;;8.32;84.49
68376;BME280;55318;52.068;5.188;2023-04-25T00:16:50;101140.0;;;8.55;84.01
68376;BME280;55318;52.068;5.188;2023-04-25T00:18:26;101146.0;;;8.56;84.38
68376;BME280;55318;52.068;5.188;2023-04-25T00:20:03;101140.0;;;8.31;85.21
68376;BME280;55318;52.068;5.188;2023-04-25T00:21:38;101140.0;;;8.53;84.67
68376;BME280;55318;52.068;5.188;2023-04-25T00:24:51;101141.0;;;8.49;85.08
68376;BME280;55318;52.068;5.188;2023-04-25T00:26:28;101147.0;;;8.51;85.42
68376;BME280;55318;52.068;5.188;2023-04-25T00:28:05;101147.0;;;8.58;84.75
68376;BME280;55318;52.068;5.188;2023-04-25T00:31:17;101147.0;;;8.51;84.66
68376;BME280;55318;52.068;5.188;2023-04-25T00:32:53;101150.0;;;8.56;84.62
68376;BME280;55318;52.068;5.188;2023-04-25T00:34:29;101151.0;;;8.5;84.87
68376;BME280;55318;52.068;5.188;2023-04-25T00:37:42;101146.0;;;8.4;85.25
68376;BME280;55318;52.068;5.188;2023-04-25T00:39:20;101149.0;;;8.32;83.8
68376;BME280;55318;52.068;5.188;2023-04-25T00:40:56;101150.0;;;8.07;85.67
68376;BME280;55318;52.068;5.188;2023-04-25T00:44:09;101147.0;;;7.99;85.79
68376;BME280;55318;52.068;5.188;2023-04-25T00:45:47;101147.0;;;7.91;85.91
68376;BME280;55318;52.068;5.188;2023-04-25T00:47:23;101150.0;;;7.68;88.41
68376;BME280;55318;52.068;5.188;2023-04-25T00:49:00;101150.0;;;7.7;87.68
68376;BME280;55318;52.068;5.188;2023-04-25T00:52:14;101150.0;;;7.59;87.42
68376;BME280;55318;52.068;5.188;2023-04-25T00:53:50;101149.0;;;7.43;88.48
68376;BME280;55318;52.068;5.188;2023-04-25T00:55:27;101146.0;;;7.37;88.73
68376;BME280;55318;52.068;5.188;2023-04-25T00:58:40;101145.0;;;7.54;87.82
68376;BME280;55318;52.068;5.188;2023-04-25T01:00:17;101148.0;;;7.41;88.14
68376;BME280;55318;52.068;5.188;2023-04-25T01:01:53;101145.0;;;7.22;89.03
68376;BME280;55318;52.068;5.188;2023-04-25T01:03:31;101150.0;;;7.27;89.01
68376;BME280;55318;52.068;5.188;2023-04-25T01:06:45;101145.0;;;7.12;88.35
68376;BME280;55318;52.068;5.188;2023-04-25T01:08:23;101147.0;;;7.16;88.88
68376;BME280;55318;52.068;5.188;2023-04-25T01:09:59;101148.0;;;7.14;88.5
68376;BME280;55318;52.068;5.188;2023-04-25T01:13:11;101155.0;;;7.23;88.6
68376;BME280;55318;52.068;5.188;2023-04-25T01:14:47;101155.0;;;7.37;87.73
68376;BME280;55318;52.068;5.188;2023-04-25T01:16:24;101158.0;;;7.28;87.73
68376;BME280;55318;52.068;5.188;2023-04-25T01:19:36;101155.0;;;7.03;88.83
68376;BME280;55318;52.068;5.188;2023-04-25T01:21:13;101155.0;;;7.17;88.24
68376;BME280;55318;52.068;5.188;2023-04-25T01:22:50;101156.0;;;7.18;88.45
68376;BME280;55318;52.068;5.188;2023-04-25T01:24:26;101149.0;;;7.12;88.57
68376;BME280;55318;52.068;5.188;2023-04-25T01:27:42;101149.0;;;7.1;88.24
68376;BME280;55318;52.068;5.188;2023-04-25T01:29:19;101160.0;;;7.14;88.05
68376;BME280;55318;52.068;5.188;2023-04-25T01:30:56;101157.0;;;7.06;88.82
68376;BME280;55318;52.068;5.188;2023-04-25T01:34:09;101167.0;;;6.94;89.35
68376;BME280;55318;52.068;5.188;2023-04-25T01:35:45;101171.0;;;6.95;88.97
68376;BME280;55318;52.068;5.188;2023-04-25T01:37:22;101173.0;;;7.04;88.53
68376;BME280;55318;52.068;5.188;2023-04-25T01:40:38;101173.0;;;6.97;88.62
68376;BME280;55318;52.068;5.188;2023-04-25T01:42:16;101172.0;;;7.17;88.22
68376;BME280;55318;52.068;5.188;2023-04-25T01:43:54;101175.0;;;7.08;88.31
68376;BME280;55318;52.068;5.188;2023-04-25T01:45:30;101178.0;;;7.04;88.15
68376;BME280;55318;52.068;5.188;2023-04-25T01:48:42;101175.0;;;7.0;88.58
68376;BME280;55318;52.068;5.188;2023-04-25T01:50:19;101178.0;;;6.88;89.25
68376;BME280;55318;52.068;5.188;2023-04-25T01:51:55;101180.0;;;6.72;89.48
68376;BME280;55318;52.068;5.188;2023-04-25T01:55:07;101181.0;;;6.53;90.16
68376;BME280;55318;52.068;5.188;2023-04-25T01:56:50;101186.0;;;6.56;89.92
68376;BME280;55318;52.068;5.188;2023-04-25T01:58:26;101186.0;;;6.46;90.25
68376;BME280;55318;52.068;5.188;2023-04-25T02:00:04;101193.0;;;6.26;91.07
68376;BME280;55318;52.068;5.188;2023-04-25T02:03:18;101195.0;;;6.21;91.7
68376;BME280;55318;52.068;5.188;2023-04-25T02:04:54;101194.0;;;6.13;91.94
68376;BME280;55318;52.068;5.188;2023-04-25T02:09:45;101200.0;;;5.96;91.54
68376;BME280;55318;52.068;5.188;2023-04-25T02:11:21;101205.0;;;5.93;91.83
68376;BME280;55318;52.068;5.188;2023-04-25T02:12:57;101202.0;;;5.9;92.33
68376;BME280;55318;52.068;5.188;2023-04-25T02:16:09;101203.0;;;5.85;92.56
68376;BME280;55318;52.068;5.188;2023-04-25T02:17:45;101196.0;;;5.81;92.98
68376;BME280;55318;52.068;5.188;2023-04-25T02:19:22;101198.0;;;5.83;93.0
68376;BME280;55318;52.068;5.188;2023-04-25T02:20:58;101195.0;;;5.87;93.69
68376;BME280;55318;52.068;5.188;2023-04-25T02:24:11;101202.0;;;5.81;93.58
68376;BME280;55318;52.068;5.188;2023-04-25T02:25:48;101198.0;;;5.85;93.12
68376;BME280;55318;52.068;5.188;2023-04-25T02:27:24;101203.0;;;5.81;92.77
68376;BME280;55318;52.068;5.188;2023-04-25T02:30:37;101199.0;;;5.74;93.28
68376;BME280;55318;52.068;5.188;2023-04-25T02:32:13;101206.0;;;5.69;93.81
68376;BME280;55318;52.068;5.188;2023-04-25T02:33:49;101203.0;;;5.7;93.34
68376;BME280;55318;52.068;5.188;2023-04-25T02:37:02;101203.0;;;5.65;93.41
68376;BME280;55318;52.068;5.188;2023-04-25T02:38:38;101205.0;;;5.63;93.28
68376;BME280;55318;52.068;5.188;2023-04-25T02:40:15;101202.0;;;5.59;93.47
68376;BME280;55318;52.068;5.188;2023-04-25T02:41:52;101203.0;;;5.59;93.76
68376;BME280;55318;52.068;5.188;2023-04-25T02:45:04;101201.0;;;5.58;94.09
68376;BME280;55318;52.068;5.188;2023-04-25T02:46:41;101199.0;;;5.63;93.72
68376;BME280;55318;52.068;5.188;2023-04-25T02:48:17;101205.0;;;5.68;94.03
68376;BME280;55318;52.068;5.188;2023-04-25T02:51:29;101203.0;;;5.65;94.26
68376;BME280;55318;52.068;5.188;2023-04-25T02:53:05;101197.0;;;5.72;93.98
68376;BME280;55318;52.068;5.188;2023-04-25T02:54:41;101200.0;;;5.7;93.93
68376;BME280;55318;52.068;5.188;2023-04-25T02:57:54;101205.0;;;5.72;94.97
68376;BME280;55318;52.068;5.188;2023-04-25T02:59:30;101202.0;;;5.73;94.88
68376;BME280;55318;52.068;5.188;2023-04-25T03:01:06;101209.0;;;5.75;94.96
68376;BME280;55318;52.068;5.188;2023-04-25T03:04:18;101213.0;;;5.74;95.7
68376;BME280;55318;52.068;5.188;2023-04-25T03:05:54;101213.0;;;5.72;95.69
68376;BME280;55318;52.068;5.188;2023-04-25T03:07:30;101217.0;;;5.75;95.08
68376;BME280;55318;52.068;5.188;2023-04-25T03:09:06;101218.0;;;5.75;94.59
68376;BME280;55318;52.068;5.188;2023-04-25T03:12:20;101219.0;;;5.83;95.51
68376;BME280;55318;52.068;5.188;2023-04-25T03:13:56;101218.0;;;5.8;95.13
68376;BME280;55318;52.068;5.188;2023-04-25T03:15:32;101218.0;;;5.84;95.81
68376;BME280;55318;52.068;5.188;2023-04-25T03:18:44;101216.0;;;5.84;95.49
68376;BME280;55318;52.068;5.188;2023-04-25T03:20:20;101221.0;;;5.94;95.77
68376;BME280;55318;52.068;5.188;2023-04-25T03:21:56;101214.0;;;5.98;95.24
68376;BME280;55318;52.068;5.188;2023-04-25T03:25:09;101222.0;;;6.01;95.89
68376;BME280;55318;52.068;5.188;2023-04-25T03:26:45;101226.0;;;6.12;96.41
68376;BME280;55318;52.068;5.188;2023-04-25T03:28:21;101233.0;;;6.34;95.47
68376;BME280;55318;52.068;5.188;2023-04-25T03:29:58;101248.0;;;6.46;93.99
68376;BME280;55318;52.068;5.188;2023-04-25T03:33:10;101255.0;;;6.63;91.7
68376;BME280;55318;52.068;5.188;2023-04-25T03:34:46;101247.0;;;6.56;90.39
68376;BME280;55318;52.068;5.188;2023-04-25T03:36:23;101252.0;;;6.68;90.47
68376;BME280;55318;52.068;5.188;2023-04-25T03:39:35;101248.0;;;6.77;89.73
68376;BME280;55318;52.068;5.188;2023-04-25T03:41:12;101232.0;;;6.91;89.53
68376;BME280;55318;52.068;5.188;2023-04-25T03:42:48;101227.0;;;7.04;88.6
68376;BME280;55318;52.068;5.188;2023-04-25T03:46:00;101224.0;;;6.96;88.92
68376;BME280;55318;52.068;5.188;2023-04-25T03:47:36;101217.0;;;6.87;88.27
68376;BME280;55318;52.068;5.188;2023-04-25T03:49:13;101218.0;;;6.66;90.31
68376;BME280;55318;52.068;5.188;2023-04-25T03:52:25;101224.0;;;6.57;91.36
68376;BME280;55318;52.068;5.188;2023-04-25T03:54:01;101225.0;;;6.5;92.91
68376;BME280;55318;52.068;5.188;2023-04-25T03:55:37;101227.0;;;6.42;93.55
68376;BME280;55318;52.068;5.188;2023-04-25T03:57:13;101226.0;;;6.32;92.93
68376;BME280;55318;52.068;5.188;2023-04-25T04:00:25;101230.0;;;6.37;94.98
68376;BME280;55318;52.068;5.188;2023-04-25T04:02:01;101235.0;;;6.35;94.67
68376;BME280;55318;52.068;5.188;2023-04-25T04:03:38;101238.0;;;6.36;94.36
68376;BME280;55318;52.068;5.188;2023-04-25T04:06:50;101237.0;;;6.34;96.36
68376;BME280;55318;52.068;5.188;2023-04-25T04:08:26;101242.0;;;6.35;96.43
68376;BME280;55318;52.068;5.188;2023-04-25T04:10:02;101245.0;;;6.43;95.91
68376;BME280;55318;52.068;5.188;2023-04-25T04:13:14;101247.0;;;6.49;95.3
68376;BME280;55318;52.068;5.188;2023-04-25T04:14:50;101246.0;;;6.36;95.81
68376;BME280;55318;52.068;5.188;2023-04-25T04:16:26;101253.0;;;6.28;95.86
68376;BME280;55318;52.068;5.188;2023-04-25T04:18:03;101256.0;;;6.31;96.18
68376;BME280;55318;52.068;5.188;2023-04-25T04:21:15;101260.0;;;6.46;94.81
68376;BME280;55318;52.068;5.188;2023-04-25T04:22:51;101258.0;;;6.44;93.73
68376;BME280;55318;52.068;5.188;2023-04-25T04:24:27;101258.0;;;6.65;92.83
68376;BME280;55318;52.068;5.188;2023-04-25T04:27:39;101264.0;;;6.79;91.35
68376;BME280;55318;52.068;5.188;2023-04-25T04:29:16;101265.0;;;6.89;89.51
68376;BME280;55318;52.068;5.188;2023-04-25T04:30:53;101270.0;;;6.82;89.3
68376;BME280;55318;52.068;5.188;2023-04-25T04:34:05;101273.0;;;6.79;90.26
68376;BME280;55318;52.068;5.188;2023-04-25T04:35:41;101275.0;;;6.8;89.72
68376;BME280;55318;52.068;5.188;2023-04-25T04:37:17;101277.0;;;6.63;90.26
68376;BME280;55318;52.068;5.188;2023-04-25T04:40:30;101280.0;;;6.83;89.81
68376;BME280;55318;52.068;5.188;2023-04-25T04:42:06;101280.0;;;6.94;89.25
68376;BME280;55318;52.068;5.188;2023-04-25T04:43:43;101278.0;;;6.97;88.71
68376;BME280;55318;52.068;5.188;2023-04-25T04:45:19;101277.0;;;7.01;88.45
68376;BME280;55318;52.068;5.188;2023-04-25T04:48:31;101281.0;;;6.97;88.66
68376;BME280;55318;52.068;5.188;2023-04-25T04:50:09;101289.0;;;6.95;88.82
68376;BME280;55318;52.068;5.188;2023-04-25T04:51:46;101285.0;;;6.94;89.71
68376;BME280;55318;52.068;5.188;2023-04-25T04:54:58;101286.0;;;6.99;89.75
68376;BME280;55318;52.068;5.188;2023-04-25T04:56:35;101287.0;;;7.08;89.43
68376;BME280;55318;52.068;5.188;2023-04-25T04:58:11;101291.0;;;6.98;89.57
68376;BME280;55318;52.068;5.188;2023-04-25T05:01:23;101293.0;;;7.18;88.87
68376;BME280;55318;52.068;5.188;2023-04-25T05:03:00;101297.0;;;7.18;89.18
68376;BME280;55318;52.068;5.188;2023-04-25T05:04:36;101296.0;;;7.19;88.04
68376;BME280;55318;52.068;5.188;2023-04-25T05:06:12;101297.0;;;7.14;88.72
68376;BME280;55318;52.068;5.188;2023-04-25T05:09:25;101300.0;;;7.34;87.59
68376;BME280;55318;52.068;5.188;2023-04-25T05:11:02;101305.0;;;7.37;87.0
68376;BME280;55318;52.068;5.188;2023-04-25T05:12:38;101310.0;;;7.38;86.49
68376;BME280;55318;52.068;5.188;2023-04-25T05:15:50;101308.0;;;7.33;87.63
68376;BME280;55318;52.068;5.188;2023-04-25T05:17:26;101313.0;;;7.3;87.73
68376;BME280;55318;52.068;5.188;2023-04-25T05:19:03;101310.0;;;7.31;87.17
68376;BME280;55318;52.068;5.188;2023-04-25T05:22:15;101310.0;;;7.44;87.21
68376;BME280;55318;52.068;5.188;2023-04-25T05:23:51;101317.0;;;7.61;87.01
68376;BME280;55318;52.068;5.188;2023-04-25T05:25:27;101320.0;;;7.61;85.7
68376;BME280;55318;52.068;5.188;2023-04-25T05:27:03;101321.0;;;7.76;85.1
68376;BME280;55318;52.068;5.188;2023-04-25T05:30:15;101324.0;;;7.89;83.88
68376;BME280;55318;52.068;5.188;2023-04-25T05:31:52;101330.0;;;7.95;82.61
68376;BME280;55318;52.068;5.188;2023-04-25T05:33:28;101332.0;;;8.08;82.11
68376;BME280;55318;52.068;5.188;2023-04-25T05:36:41;101333.0;;;7.98;82.95
68376;BME280;55318;52.068;5.188;2023-04-25T05:38:17;101332.0;;;7.97;83.02
68376;BME280;55318;52.068;5.188;2023-04-25T05:39:53;101328.0;;;8.03;83.84
68376;BME280;55318;52.068;5.188;2023-04-25T05:43:06;101326.0;;;8.14;83.21
68376;BME280;55318;52.068;5.188;2023-04-25T05:44:42;101330.0;;;8.13;83.49
68376;BME280;55318;52.068;5.188;2023-04-25T05:46:18;101332.0;;;8.17;84.05
68376;BME280;55318;52.068;5.188;2023-04-25T05:49:30;101341.0;;;8.07;84.02
68376;BME280;55318;52.068;5.188;2023-04-25T05:51:06;101338.0;;;7.98;86.09
68376;BME280;55318;52.068;5.188;2023-04-25T05:52:44;101344.0;;;8.24;83.5
68376;BME280;55318;52.068;5.188;2023-04-25T05:54:20;101345.0;;;8.22;83.8
68376;BME280;55318;52.068;5.188;2023-04-25T05:57:31;101348.0;;;8.11;84.43
68376;BME280;55318;52.068;5.188;2023-04-25T05:59:07;101344.0;;;8.23;83.45
68376;BME280;55318;52.068;5.188;2023-04-25T06:00:43;101344.0;;;8.23;84.06
68376;BME280;55318;52.068;5.188;2023-04-25T06:03:57;101346.0;;;8.39;83.0
68376;BME280;55318;52.068;5.188;2023-04-25T06:05:33;101350.0;;;8.41;82.2
68376;BME280;55318;52.068;5.188;2023-04-25T06:07:09;101356.0;;;8.41;82.24
68376;BME280;55318;52.068;5.188;2023-04-25T06:10:22;101367.0;;;8.23;83.43
68376;BME280;55318;52.068;5.188;2023-04-25T06:11:57;101359.0;;;8.4;82.76
68376;BME280;55318;52.068;5.188;2023-04-25T06:13:33;101362.0;;;8.38;83.76
68376;BME280;55318;52.068;5.188;2023-04-25T06:16:46;101365.0;;;8.28;85.75
68376;BME280;55318;52.068;5.188;2023-04-25T06:18:22;101367.0;;;8.52;83.59
68376;BME280;55318;52.068;5.188;2023-04-25T06:19:58;101374.0;;;8.67;82.24
68376;BME280;55318;52.068;5.188;2023-04-25T06:21:34;101374.0;;;8.69;82.9
68376;BME280;55318;52.068;5.188;2023-04-25T06:24:47;101375.0;;;8.63;83.68
68376;BME280;55318;52.068;5.188;2023-04-25T06:26:23;101380.0;;;8.83;81.96
68376;BME280;55318;52.068;5.188;2023-04-25T06:28:00;101376.0;;;8.93;80.02
68376;BME280;55318;52.068;5.188;2023-04-25T06:31:12;101381.0;;;8.98;80.88
68376;BME280;55318;52.068;5.188;2023-04-25T06:32:48;101377.0;;;9.15;79.72
68376;BME280;55318;52.068;5.188;2023-04-25T06:34:24;101382.0;;;9.21;79.75
68376;BME280;55318;52.068;5.188;2023-04-25T06:37:36;101383.0;;;9.42;79.52
68376;BME280;55318;52.068;5.188;2023-04-25T06:39:13;101386.0;;;9.66;80.08
68376;BME280;55318;52.068;5.188;2023-04-25T06:40:49;101393.0;;;10.03;77.5
68376;BME280;55318;52.068;5.188;2023-04-25T06:42:25;101394.0;;;10.4;74.49
68376;BME280;55318;52.068;5.188;2023-04-25T06:45:37;101396.0;;;10.71;73.39
68376;BME280;55318;52.068;5.188;2023-04-25T06:47:13;101402.0;;;10.93;71.98
68376;BME280;55318;52.068;5.188;2023-04-25T06:48:50;101399.0;;;11.32;69.24
68376;BME280;55318;52.068;5.188;2023-04-25T06:52:03;101399.0;;;11.63;67.3
68376;BME280;55318;52.068;5.188;2023-04-25T06:53:39;101405.0;;;11.83;68.37
68376;BME280;55318;52.068;5.188;2023-04-25T06:55:16;101408.0;;;11.93;69.16
68376;BME280;55318;52.068;5.188;2023-04-25T06:58:28;101407.0;;;12.29;67.31
68376;BME280;55318;52.068;5.188;2023-04-25T07:00:06;101410.0;;;12.46;68.83
68376;BME280;55318;52.068;5.188;2023-04-25T07:01:44;101405.0;;;12.73;65.75
68376;BME280;55318;52.068;5.188;2023-04-25T07:03:19;101407.0;;;13.06;63.2
68376;BME280;55318;52.068;5.188;2023-04-25T07:06:33;101409.0;;;13.29;64.37
68376;BME280;55318;52.068;5.188;2023-04-25T07:08:09;101411.0;;;13.44;61.5
68376;BME280;55318;52.068;5.188;2023-04-25T07:09:45;101416.0;;;13.83;59.01
68376;BME280;55318;52.068;5.188;2023-04-25T07:12:57;101415.0;;;13.83;62.25
68376;BME280;55318;52.068;5.188;2023-04-25T07:14:33;101418.0;;;13.94;58.16
68376;BME280;55318;52.068;5.188;2023-04-25T07:16:10;101420.0;;;14.17;58.46
68376;BME280;55318;52.068;5.188;2023-04-25T07:19:22;101422.0;;;13.45;59.97
68376;BME280;55318;52.068;5.188;2023-04-25T07:20:58;101420.0;;;13.49;61.03
68376;BME280;55318;52.068;5.188;2023-04-25T07:22:34;101420.0;;;13.16;62.86
68376;BME280;55318;52.068;5.188;2023-04-25T07:25:46;101425.0;;;13.35;59.88
68376;BME280;55318;52.068;5.188;2023-04-25T07:27:22;101427.0;;;12.87;58.76
68376;BME280;55318;52.068;5.188;2023-04-25T07:28:59;101425.0;;;12.75;57.5
68376;BME280;55318;52.068;5.188;2023-04-25T07:30:35;101434.0;;;12.49;59.4
68376;BME280;55318;52.068;5.188;2023-04-25T07:33:47;101433.0;;;11.9;63.2
68376;BME280;55318;52.068;5.188;2023-04-25T07:35:23;101439.0;;;11.36;62.63
68376;BME280;55318;52.068;5.188;2023-04-25T07:36:59;101447.0;;;11.36;61.87
68376;BME280;55318;52.068;5.188;2023-04-25T07:40:12;101449.0;;;10.88;66.73
68376;BME280;55318;52.068;5.188;2023-04-25T07:41:49;101449.0;;;11.11;65.09
68376;BME280;55318;52.068;5.188;2023-04-25T07:43:25;101450.0;;;11.03;64.81
68376;BME280;55318;52.068;5.188;2023-04-25T07:46:37;101455.0;;;11.03;64.33
68376;BME280;55318;52.068;5.188;2023-04-25T07:48:16;101460.0;;;10.67;67.38
68376;BME280;55318;52.068;5.188;2023-04-25T07:49:53;101459.0;;;10.6;67.87
68376;BME280;55318;52.068;5.188;2023-04-25T07:51:29;101462.0;;;10.56;67.83
68376;BME280;55318;52.068;5.188;2023-04-25T07:54:42;101460.0;;;10.4;65.24
68376;BME280;55318;52.068;5.188;2023-04-25T07:56:18;101467.0;;;10.46;67.48
68376;BME280;55318;52.068;5.188;2023-04-25T07:57:54;101470.0;;;10.59;64.53
68376;BME280;55318;52.068;5.188;2023-04-25T08:01:06;101473.0;;;10.47;63.38
68376;BME280;55318;52.068;5.188;2023-04-25T08:02:42;101470.0;;;10.57;63.72
68376;BME280;55318;52.068;5.188;2023-04-25T08:04:18;101480.0;;;10.78;64.48
68376;BME280;55318;52.068;5.188;2023-04-25T08:07:30;101477.0;;;10.71;62.04
68376;BME280;55318;52.068;5.188;2023-04-25T08:09:07;101481.0;;;10.78;63.54
68376;BME280;55318;52.068;5.188;2023-04-25T08:10:43;101488.0;;;10.71;64.05
68376;BME280;55318;52.068;5.188;2023-04-25T08:13:55;101487.0;;;10.75;61.52
68376;BME280;55318;52.068;5.188;2023-04-25T08:15:31;101488.0;;;10.79;61.03
68376;BME280;55318;52.068;5.188;2023-04-25T08:17:07;101491.0;;;11.29;65.08
68376;BME280;55318;52.068;5.188;2023-04-25T08:18:45;101494.0;;;11.47;61.97
68376;BME280;55318;52.068;5.188;2023-04-25T08:21:57;101486.0;;;11.53;61.21
68376;BME280;55318;52.068;5.188;2023-04-25T08:23:33;101495.0;;;11.97;61.2
68376;BME280;55318;52.068;5.188;2023-04-25T08:25:09;101495.0;;;12.21;62.21
68376;BME280;55318;52.068;5.188;2023-04-25T08:28:21;101494.0;;;12.69;61.26
68376;BME280;55318;52.068;5.188;2023-04-25T08:29:57;101498.0;;;12.81;55.91
68376;BME280;55318;52.068;5.188;2023-04-25T08:31:34;101499.0;;;12.83;55.87
68376;BME280;55318;52.068;5.188;2023-04-25T08:34:46;101496.0;;;13.09;55.59
68376;BME280;55318;52.068;5.188;2023-04-25T08:36:22;101501.0;;;13.39;57.12
68376;BME280;55318;52.068;5.188;2023-04-25T08:37:58;101509.0;;;13.27;57.92
68376;BME280;55318;52.068;5.188;2023-04-25T08:39:34;101511.0;;;13.18;55.94
68376;BME280;55318;52.068;5.188;2023-04-25T08:42:48;101522.0;;;12.96;58.42
68376;BME280;55318;52.068;5.188;2023-04-25T08:44:26;101516.0;;;12.58;58.94
68376;BME280;55318;52.068;5.188;2023-04-25T08:46:02;101523.0;;;11.86;59.37
68376;BME280;55318;52.068;5.188;2023-04-25T08:49:16;101527.0;;;12.07;61.99
68376;BME280;55318;52.068;5.188;2023-04-25T08:50:54;101530.0;;;11.62;60.25
68376;BME280;55318;52.068;5.188;2023-04-25T08:52:36;101534.0;;;11.52;61.81
68376;BME280;55318;52.068;5.188;2023-04-25T08:54:14;101540.0;;;11.85;61.79
68376;BME280;55318;52.068;5.188;2023-04-25T08:57:31;101541.0;;;11.89;63.41
68376;BME280;55318;52.068;5.188;2023-04-25T08:59:07;101540.0;;;12.03;59.73
68376;BME280;55318;52.068;5.188;2023-04-25T09:00:43;101545.0;;;12.23;60.86
68376;BME280;55318;52.068;5.188;2023-04-25T09:03:57;101549.0;;;12.63;62.43
68376;BME280;55318;52.068;5.188;2023-04-25T09:05:33;101551.0;;;12.82;60.57
68376;BME280;55318;52.068;5.188;2023-04-25T09:07:11;101552.0;;;12.94;58.78
68376;BME280;55318;52.068;5.188;2023-04-25T09:10:26;101555.0;;;12.98;55.45
68376;BME280;55318;52.068;5.188;2023-04-25T09:12:03;101553.0;;;13.54;57.6
68376;BME280;55318;52.068;5.188;2023-04-25T09:13:40;101557.0;;;13.81;55.53
68376;BME280;55318;52.068;5.188;2023-04-25T09:15:16;101551.0;;;13.72;49.54
68376;BME280;55318;52.068;5.188;2023-04-25T09:18:37;101552.0;;;14.06;52.53
68376;BME280;55318;52.068;5.188;2023-04-25T09:20:14;101559.0;;;14.26;50.89
68376;BME280;55318;52.068;5.188;2023-04-25T09:21:50;101561.0;;;14.41;49.16
68376;BME280;55318;52.068;5.188;2023-04-25T09:25:07;101559.0;;;13.75;43.51
68376;BME280;55318;52.068;5.188;2023-04-25T09:26:44;101561.0;;;13.96;47.98
68376;BME280;55318;52.068;5.188;2023-04-25T09:28:24;101569.0;;;14.32;49.2
68376;BME280;55318;52.068;5.188;2023-04-25T09:30:00;101568.0;;;14.57;47.84
68376;BME280;55318;52.068;5.188;2023-04-25T09:33:12;101565.0;;;14.58;47.97
68376;BME280;55318;52.068;5.188;2023-04-25T09:34:51;101577.0;;;13.35;47.35
68376;BME280;55318;52.068;5.188;2023-04-25T09:36:29;101578.0;;;13.77;49.97
68376;BME280;55318;52.068;5.188;2023-04-25T09:38:08;101580.0;;;13.75;49.32
68376;BME280;55318;52.068;5.188;2023-04-25T09:41:23;101578.0;;;13.52;52.52
68376;BME280;55318;52.068;5.188;2023-04-25T09:42:59;101580.0;;;13.36;52.49
68376;BME280;55318;52.068;5.188;2023-04-25T09:44:35;101577.0;;;13.21;50.6
68376;BME280;55318;52.068;5.188;2023-04-25T09:47:49;101585.0;;;13.34;48.45
68376;BME280;55318;52.068;5.188;2023-04-25T09:49:26;101597.0;;;13.47;48.43
68376;BME280;55318;52.068;5.188;2023-04-25T09:51:04;101594.0;;;13.39;49.85
68376;BME280;55318;52.068;5.188;2023-04-25T09:54:19;101603.0;;;13.28;47.43
68376;BME280;55318;52.068;5.188;2023-04-25T09:55:56;101600.0;;;13.18;50.3
68376;BME280;55318;52.068;5.188;2023-04-25T09:57:33;101606.0;;;13.19;49.32
68376;BME280;55318;52.068;5.188;2023-04-25T09:59:09;101608.0;;;13.02;49.93
68376;BME280;55318;52.068;5.188;2023-04-25T10:02:25;101616.0;;;12.78;51.33
68376;BME280;55318;52.068;5.188;2023-04-25T10:04:05;101617.0;;;12.77;52.42
68376;BME280;55318;52.068;5.188;2023-04-25T10:05:43;101619.0;;;12.73;52.65
68376;BME280;55318;52.068;5.188;2023-04-25T10:08:58;101628.0;;;12.53;52.65
68376;BME280;55318;52.068;5.188;2023-04-25T10:10:35;101630.0;;;12.33;55.09
68376;BME280;55318;52.068;5.188;2023-04-25T10:12:13;101634.0;;;12.23;54.32
68376;BME280;55318;52.068;5.188;2023-04-25T10:13:50;101633.0;;;12.13;53.85
68376;BME280;55318;52.068;5.188;2023-04-25T10:17:03;101638.0;;;12.13;53.25
68376;BME280;55318;52.068;5.188;2023-04-25T10:18:39;101639.0;;;12.08;54.42
68376;BME280;55318;52.068;5.188;2023-04-25T10:20:15;101634.0;;;12.01;53.39
68376;BME280;55318;52.068;5.188;2023-04-25T10:23:34;101633.0;;;11.95;55.11
68376;BME280;55318;52.068;5.188;2023-04-25T10:25:12;101636.0;;;11.94;57.83
68376;BME280;55318;52.068;5.188;2023-04-25T10:26:49;101635.0;;;11.99;55.57
68376;BME280;55318;52.068;5.188;2023-04-25T10:28:26;101632.0;;;12.08;56.72
68376;BME280;55318;52.068;5.188;2023-04-25T10:31:46;101633.0;;;12.2;54.09
68376;BME280;55318;52.068;5.188;2023-04-25T10:33:30;101632.0;;;12.42;53.4
68376;BME280;55318;52.068;5.188;2023-04-25T10:35:12;101633.0;;;12.51;56.95
68376;BME280;55318;52.068;5.188;2023-04-25T10:36:51;101633.0;;;12.72;57.61
68376;BME280;55318;52.068;5.188;2023-04-25T10:40:08;101634.0;;;12.74;52.6
68376;BME280;55318;52.068;5.188;2023-04-25T10:41:46;101633.0;;;13.02;54.38
68376;BME280;55318;52.068;5.188;2023-04-25T10:43:35;101637.0;;;13.16;50.87
68376;BME280;55318;52.068;5.188;2023-04-25T10:45:15;101637.0;;;13.2;53.29
68376;BME280;55318;52.068;5.188;2023-04-25T10:48:28;101637.0;;;13.49;52.93
68376;BME280;55318;52.068;5.188;2023-04-25T10:50:05;101637.0;;;13.15;50.81
68376;BME280;55318;52.068;5.188;2023-04-25T10:51:43;101642.0;;;13.41;49.68
68376;BME280;55318;52.068;5.188;2023-04-25T10:55:02;101642.0;;;13.63;50.0
68376;BME280;55318;52.068;5.188;2023-04-25T10:56:41;101633.0;;;13.56;46.86
68376;BME280;55318;52.068;5.188;2023-04-25T10:58:21;101635.0;;;13.69;51.54
68376;BME280;55318;52.068;5.188;2023-04-25T11:00:00;101640.0;;;13.61;50.24
68376;BME280;55318;52.068;5.188;2023-04-25T11:03:21;101639.0;;;13.62;48.72
68376;BME280;55318;52.068;5.188;2023-04-25T11:04:58;101641.0;;;13.73;47.12
68376;BME280;55318;52.068;5.188;2023-04-25T11:06:46;101645.0;;;13.72;48.13
68376;BME280;55318;52.068;5.188;2023-04-25T11:08:47;101628.0;;;14.13;49.72
68376;BME280;55318;52.068;5.188;2023-04-25T11:10:27;101633.0;;;14.08;48.46
68376;BME280;55318;52.068;5.188;2023-04-25T11:13:40;101630.0;;;13.92;45.29